Leeuwarden Air Base

EHLW · Friesland, Holandia

Historia METAR EHLW · Leeuwarden Air Base

Poniżej widzisz METAR-y z ostatnich kilku dni. Wybierz rok, aby przeglądać starsze METAR-y, począwszy od roku 2007.

23 marca 2023

Czas Kod Pogoda Temp. Widoczność Sufit Wiatr METAR/SPECI
15:16
V
13 °C 10 km+ - 230° 230° 23 - 33 kt METAR EHLW 231416Z AUTO 23023G33KT 200V270 9999 FEW023 SCT026 13/08 Q1000 BLU
15:06
V
13 °C 10 km+ - 230° 230° 23 - 33 kt METAR EHLW 231406Z AUTO 23023G33KT 200V270 9999 SCT023 SCT026 13/08 Q1000 WHT
15:03
V
13 °C 10 km+ - 230° 230° 23 - 33 kt METAR EHLW 231403Z AUTO 23023G33KT 9999 FEW023 SCT026 13/08 Q1000 BLU
14:55
M
13 °C 10 km+ 2.300 ft 230° 230° 21 - 35 kt METAR EHLW 231355Z AUTO 23021G35KT 200V260 9999 BKN023 BKN028 BKN034 13/08 Q1000 WHT
14:25
M
14 °C 10 km+ 2.200 ft 240° 240° 22 - 32 kt METAR EHLW 231325Z AUTO 24022G32KT 9999 BKN022 BKN031 BKN049 14/08 Q1000 WHT
13:59
V
13 °C 10 km+ 4.600 ft 230° 230° 19 kt METAR EHLW 231259Z AUTO 23019KT 9999 SCT024 BKN046 BKN050 13/07 Q1001 WHT
13:55
V
13 °C 10 km+ 4.600 ft 230° 230° 21 kt METAR EHLW 231255Z AUTO 23021KT 9999 FEW023 BKN046 13/07 Q1001 BLU
13:37
V
13 °C 10 km+ 4.900 ft 230° 230° 22 - 34 kt METAR EHLW 231237Z AUTO 23022G34KT 9999 FEW024 SCT028 BKN049 13/08 Q1001 BLU
13:25
M
13 °C 10 km+ 2.400 ft 230° 230° 22 kt METAR EHLW 231225Z AUTO 23022KT 190V260 9999 BKN024 BKN029 BKN059 13/07 Q1001 WHT
13:06
V
13 °C 10 km+ - 230° 230° 21 kt METAR EHLW 231206Z AUTO 23021KT 190V250 9999 SCT024 13/07 Q1001 WHT
12:56
V
13 °C 10 km+ - 230° 230° 19 kt METAR EHLW 231156Z AUTO 23019KT 9999 FEW025 SCT031 13/08 Q1000 BLU
12:46
M
13 °C 10 km+ 2.600 ft 230° 230° 18 - 30 kt SPECI EHLW 231146Z AUTO 23018G30KT 200V270 9999 SCT023 BKN026 BKN031 13/08 Q1000 WHT
12:36
M
12 °C 10 km+ 2.600 ft 230° 230° 18 kt METAR EHLW 231136Z AUTO 23018KT 200V260 9999 FEW023 BKN026 BKN031 12/07 Q1000 BLU
12:27
V
12 °C 10 km+ - 230° 230° 18 kt METAR EHLW 231127Z AUTO 23018KT 210V270 9999 SCT023 SCT030 12/06 Q1000 WHT
12:25
V
12 °C 10 km+ 3.300 ft 230° 230° 17 - 27 kt METAR EHLW 231125Z AUTO 23017G27KT 200V270 9999 FEW022 SCT026 BKN033 12/07 Q1000 BLU
12:00
V
12 °C 10 km+ - 230° 230° 17 kt SPECI EHLW 231100Z AUTO 23017KT 9999 FEW020 SCT023 12/08 Q1000 WHT
11:55
V
11 °C 10 km+ - 230° 230° 18 kt METAR EHLW 231055Z AUTO 23018KT 200V260 9999 FEW020 11/07 Q1000 BLU
11:29
V
12 °C 10 km+ - 240° 240° 19 kt SPECI EHLW 231029Z AUTO 24019KT 200V270 9999 SCT021 SCT026 12/07 Q1000 WHT
11:25
V
12 °C 10 km+ - 230° 230° 18 kt METAR EHLW 231025Z AUTO 23018KT 9999 FEW020 12/07 Q1000 BLU
10:55
V
11 °C 10 km+ - 240° 240° 19 kt METAR EHLW 230955Z AUTO 24019KT 210V270 9999 SCT018 SCT026 11/07 Q1000 WHT
10:25
V
12 °C 10 km+ - 240° 240° 19 kt METAR EHLW 230925Z AUTO 24019KT 200V260 9999 FEW017 SCT020 12/08 Q1000 WHT
10:02
V
11 °C 10 km+ - 240° 240° 21 kt METAR EHLW 230902Z AUTO 24021KT 9999 SCT017 11/07 Q0999 WHT
09:55
V
11 °C 10 km+ - 240° 240° 19 kt METAR EHLW 230855Z AUTO 24019KT 210V270 9999 NCD 11/08 Q0999 BLU
09:25
V
11 °C 10 km+ 3.500 ft 240° 240° 18 kt METAR EHLW 230825Z AUTO 24018KT 200V260 9999 FEW029 BKN035 11/08 Q0999 BLU
08:55
V
11 °C 10 km+ - 240° 240° 16 kt METAR EHLW 230755Z AUTO 24016KT 9999 SCT029 11/08 Q0999 BLU
08:25
V
10 °C 10 km+ 3.400 ft 240° 240° 17 kt METAR EHLW 230725Z AUTO 24017KT 9999 FEW013 BKN034 OVC040 10/08 Q0999 BLU
07:55
V
10 °C 10 km+ - 230° 230° 16 kt METAR EHLW 230655Z AUTO 23016KT 9999 SCT045 10/07 Q0998 BLU
07:25
V
9 °C 10 km+ - 230° 230° 16 kt METAR EHLW 230625Z AUTO 23016KT 200V260 9999 FEW063 09/06 Q0998 BLU
07:16
V
9 °C 10 km+ 8.500 ft 230° 230° 18 kt METAR EHLW 230616Z AUTO 23018KT 9999 FEW063 SCT076 BKN085 09/05 Q0998 BLU
07:01
V
10 °C 10 km+ 5.800 ft 230° 230° 19 kt METAR EHLW 230601Z AUTO 23019KT 9999 FEW015CB SCT053 BKN058 10/06 Q0998 BLU
06:55
V
10 °C 10 km+ 4.400 ft 230° 230° 19 kt METAR EHLW 230555Z AUTO 23019KT 9999 -DZRA FEW015CB SCT035 BKN044 10/08 Q0998 BLU
06:44
V
10 °C 10 km+ 5.000 ft 230° 230° 21 - 32 kt METAR EHLW 230544Z AUTO 23021G32KT 9999 -DZ FEW015CB SCT043 BKN050 10/08 Q0997 BLU
06:40
V
10 °C 10 km+ 5.400 ft 240° 240° 20 kt METAR EHLW 230540Z AUTO 24020KT 9999 -DZRA FEW024 SCT049 BKN054 10/08 Q0997 BLU
06:25
V
10 °C 10 km+ - 240° 240° 19 kt METAR EHLW 230525Z AUTO 24019KT 9999 FEW019 SCT025 10/08 Q0997 BLU
06:16
V
10 °C 10 km+ 15.000 ft 230° 230° 19 kt METAR EHLW 230516Z AUTO 23019KT 200V260 9999 FEW017 SCT024 OVC150 10/08 Q0997 WHT
05:55
V
10 °C 10 km+ 14.000 ft 230° 230° 19 kt METAR EHLW 230455Z AUTO 23019KT 9999 FEW017 SCT025 BKN140 10/08 Q0997 BLU
05:26
M
11 °C 10 km+ 2.400 ft 220° 220° 20 kt METAR EHLW 230426Z AUTO 22020KT 9999 FEW020 BKN024 OVC027 11/08 Q0997 WHT
05:25
M
11 °C 10 km+ 2.400 ft 220° 220° 19 kt METAR EHLW 230425Z AUTO 22019KT 9999 FEW015CB BKN024 OVC028 11/09 Q0997 WHT
05:02
V
11 °C 10 km+ 3.400 ft 220° 220° 18 kt METAR EHLW 230402Z AUTO 22018KT 9999 FEW015CB SCT025 BKN034 11/09 Q0997 BLU
04:55
M
10 °C 10 km+ 2.400 ft 220° 220° 17 kt METAR EHLW 230355Z AUTO 22017KT 9999 FEW015CB BKN024 BKN028 10/09 Q0997 WHT
04:34
V
11 °C 10 km+ 3.100 ft 210° 210° 20 - 30 kt SPECI EHLW 230334Z AUTO 21020G30KT 170V240 9999 -RA FEW015CB BKN031 BKN039 11/09 Q0997 BLU
04:29
M
11 °C 6 km 3.100 ft 210° 210° 16 - 30 kt METAR EHLW 230329Z AUTO 21016G30KT 170V240 6000 RA FEW015CB SCT017 BKN031 11/09 Q0997 WHT
04:25
M
11 °C 6 km 2.300 ft 200° 200° 13 kt METAR EHLW 230325Z AUTO 20013KT 170V230 6000 -RA FEW015CB SCT020 BKN023 11/09 Q0997 WHT
04:16
V
11 °C 10 km+ 3.200 ft 200° 200° 12 kt METAR EHLW 230316Z AUTO 20012KT 170V230 9999 FEW015CB SCT023 OVC032 11/09 Q0997 WHT
03:55
M
11 °C 10 km+ 2.400 ft 210° 210° 13 kt METAR EHLW 230255Z AUTO 21013KT 9999 FEW021 BKN024 BKN029 11/09 Q0997 WHT
03:25
V
11 °C 10 km+ 3.000 ft 210° 210° 15 kt METAR EHLW 230225Z AUTO 21015KT 170V230 9999 -RA FEW015CB SCT021 BKN030 11/09 Q0997 RERA WHT
03:19
M
11 °C 10 km+ 2.700 ft 210° 210° 14 kt METAR EHLW 230219Z AUTO 21014KT 170V230 9999 RA FEW015CB SCT021 BKN027 11/09 Q0997 WHT
02:55
M
11 °C 10 km+ 2.500 ft 200° 200° 15 kt METAR EHLW 230155Z AUTO 20015KT 170V230 9999 FEW015CB SCT021 BKN025 OVC029 11/09 Q0998 WHT
02:25
M
10 °C 10 km+ 1.800 ft 200° 200° 11 kt METAR EHLW 230125Z AUTO 20011KT 160V240 9999 FEW015CB BKN018 OVC022 10/09 Q0998 WHT
02:06
V
10 °C 10 km+ 13.000 ft 200° 200° 11 kt METAR EHLW 230106Z AUTO 20011KT 160V230 9999 SCT019 SCT023 OVC130 10/09 Q0998 WHT
02:03
V
10 °C 10 km+ 13.000 ft 190° 190° 11 kt METAR EHLW 230103Z AUTO 19011KT 160V230 9999 FEW020 SCT026 OVC130 10/09 Q0998 BLU
01:55
M
10 °C 8 km 2.000 ft 200° 200° 10 kt METAR EHLW 230055Z AUTO 20010KT 170V240 8000 BR SCT016 BKN020 BKN023 10/10 Q0998 WHT
01:40
I
10 °C 10 km+ 500 ft 200° 200° 11 kt METAR EHLW 230040Z AUTO 20011KT 160V230 9999 SCT004 BKN005 BKN015 10/10 Q0999 YLO
01:29
M
10 °C 10 km+ 2.100 ft 200° 200° 11 kt METAR EHLW 230029Z AUTO 20011KT 170V230 9999 FEW005 SCT008 BKN021 10/10 Q0999 GRN
01:25
M
10 °C 10 km+ 2.300 ft 200° 200° 11 kt METAR EHLW 230025Z AUTO 20011KT 170V230 9999 FEW007 BKN023 OVC028 10/10 Q0999 REDZ WHT
01:18
M
10 °C 10 km+ 2.200 ft 200° 200° 11 kt METAR EHLW 230018Z AUTO 20011KT 170V230 9999 FEW013 SCT018 BKN022 10/10 Q0999 WHT
01:11
M
10 °C 10 km+ 1.800 ft 200° 200° 12 kt METAR EHLW 230011Z AUTO 20012KT 170V230 9999 FEW005 SCT013 BKN018 10/10 Q0999 GRN
01:04
M
10 °C 10 km+ 1.300 ft 210° 210° 13 kt METAR EHLW 230004Z AUTO 21013KT 170V230 9999 FEW005 SCT006 BKN013 10/10 Q0999 YLO
01:03
M
10 °C 10 km+ 1.700 ft 210° 210° 14 kt METAR EHLW 230003Z AUTO 21014KT 170V240 9999 DZ FEW005 SCT014 FEW015CB BKN017 10/09 Q0999 GRN
00:59
I
10 °C 4,6 km 2.300 ft 210° 210° 14 kt METAR EHLW 222359Z AUTO 21014KT 170V240 4600 +DZ FEW006 FEW015CB SCT018 BKN023 10/09 Q0999 GRN
00:44
M
10 °C 7 km 5.300 ft 190° 190° 13 kt METAR EHLW 222344Z AUTO 19013KT 160V230 7000 -RA FEW007 FEW015CB SCT048 OVC053 10/09 Q0999 WHT
00:30
V
10 °C 8 km 5.100 ft 200° 200° 11 kt METAR EHLW 222330Z AUTO 20011KT 160V230 8000 -SHRA +DZ FEW014 FEW015CB BKN051 OVC056 10/09 Q0999 BLU
00:29
V
10 °C 8 km 5.400 ft 200° 200° 11 kt METAR EHLW 222329Z AUTO 20011KT 170V230 8000 -RA FEW015CB SCT049 OVC054 10/09 Q0999 BLU
00:25
M
10 °C 9 km 1.600 ft 210° 210° 11 kt METAR EHLW 222325Z AUTO 21011KT 170V240 9000 -RA FEW015CB BKN016 OVC053 10/09 Q0999 RERA REDZ WHT
00:17
V
10 °C 10 km+ 5.600 ft 210° 210° 12 kt METAR EHLW 222317Z AUTO 21012KT 170V240 9999 DZRA FEW015CB SCT020 OVC056 10/09 Q0999 WHT

22 marca 2023

Czas Kod Pogoda Temp. Widoczność Sufit Wiatr METAR/SPECI
23:48
V
10 °C 10 km+ 5.500 ft 190° 190° 13 kt METAR EHLW 222248Z AUTO 19013KT 150V220 9999 -RA FEW015CB BKN055 OVC062 10/09 Q0999 BLU
23:39
V
10 °C 10 km+ 5.600 ft 190° 190° 14 kt METAR EHLW 222239Z AUTO 19014KT 150V230 9999 DZRA FEW015CB SCT047 OVC056 10/09 Q0999 BLU
23:25
V
10 °C 10 km+ 5.700 ft 180° 180° 15 kt METAR EHLW 222225Z AUTO 18015KT 150V220 9999 -RADZ FEW015CB SCT051 BKN057 10/09 Q0999 RERA REDZ BLU
23:10
V
11 °C 9 km 5.400 ft 190° 190° 15 kt METAR EHLW 222210Z AUTO 19015KT 150V220 9000 -RADZ FEW015CB SCT046 BKN054 11/10 Q0999 BLU
22:59
V
10 °C 10 km+ 5.400 ft 190° 190° 14 kt METAR EHLW 222159Z AUTO 19014KT 140V210 9999 DZRA FEW015CB BKN054 BKN061 10/10 Q1000 BLU
22:43
V
11 °C 10 km+ 5.600 ft 200° 200° 14 kt METAR EHLW 222143Z AUTO 20014KT 160V220 9999 DZ FEW015CB SCT048 BKN056 11/10 Q1000 BLU
22:30
V
11 °C 9 km 4.300 ft 210° 210° 16 kt SPECI EHLW 222130Z AUTO 21016KT 170V230 9000 -DZ FEW005 FEW015CB BKN043 BKN047 11/10 Q1000 BLU
22:25
I
11 °C 7 km 500 ft 210° 210° 15 kt METAR EHLW 222125Z AUTO 21015KT 170V230 7000 DZRA SCT004 BKN005 FEW015CB BKN020 11/10 Q1000 YLO
22:06
I
11 °C 8 km 500 ft 210° 210° 15 kt METAR EHLW 222106Z AUTO 21015KT 8000 BR BKN005 BKN006 FEW015CB 11/10 Q1000 YLO
21:55
I
11 °C 8 km 500 ft 200° 200° 14 kt METAR EHLW 222055Z AUTO 20014KT 170V230 8000 BR BKN005 OVC006 11/10 Q1000 YLO
21:25
I
11 °C 10 km+ 500 ft 200° 200° 14 kt METAR EHLW 222025Z AUTO 20014KT 160V230 9999 BKN005 OVC006 11/10 Q1000 YLO
21:00
I
11 °C 10 km+ 600 ft 200° 200° 14 - 24 kt METAR EHLW 222000Z AUTO 20014G24KT 160V240 9999 FEW005 BKN006 BKN008 11/10 Q1001 YLO
20:55
I
11 °C 10 km+ 600 ft 210° 210° 15 kt METAR EHLW 221955Z AUTO 21015KT 170V230 9999 FEW005 BKN006 BKN008 11/10 Q1001 YLO
20:25
I
11 °C 8 km 600 ft 200° 200° 15 kt METAR EHLW 221925Z AUTO 20015KT 170V230 8000 BR SCT005 BKN006 OVC007 11/10 Q1001 REDZ YLO
19:55
L
11 °C 6 km 400 ft 200° 200° 16 kt METAR EHLW 221855Z AUTO 20016KT 170V230 6000 -RADZ BKN004 BKN006 OVC007 11/10 Q1001 YLO
19:34
L
11 °C 6 km 400 ft 200° 200° 16 kt METAR EHLW 221834Z AUTO 20016KT 160V230 6000 BR BKN004 OVC006 11/10 Q1001 YLO
19:30
I
11 °C 7 km 500 ft 200° 200° 16 kt METAR EHLW 221830Z AUTO 20016KT 170V230 7000 BR SCT004 OVC005 11/10 Q1001 YLO
19:25
I
10 °C 3,9 km 500 ft 200° 200° 15 kt METAR EHLW 221825Z AUTO 20015KT 160V230 3900 -RA SCT004 BKN005 OVC006 10/10 Q1001 RERA REDZ YLO
19:16
I
10 °C 3,1 km 500 ft 200° 200° 15 kt METAR EHLW 221816Z AUTO 20015KT 170V230 3100 -RA SCT004 BKN005 OVC006 10/10 Q1001 YLO
19:10
I
10 °C 3 km 500 ft 200° 200° 15 kt METAR EHLW 221810Z AUTO 20015KT 160V230 3000 DZRA SCT004 OVC005 10/10 Q1002 YLO
19:04
L
10 °C 3,2 km 400 ft 210° 210° 15 kt METAR EHLW 221804Z AUTO 21015KT 3200 DZ BKN004 OVC006 10/10 Q1002 YLO
18:57
I
10 °C 3,3 km 500 ft 210° 210° 14 kt METAR EHLW 221757Z AUTO 21014KT 140V230 3300 DZ BKN005 OVC006 10/10 Q1002 YLO
18:55
I
11 °C 3,2 km 500 ft 210° 210° 15 kt METAR EHLW 221755Z AUTO 21015KT 140V230 3200 -RADZ BKN005 OVC006 11/10 Q1002 YLO
18:34
I
10 °C 4,6 km 600 ft 210° 210° 15 kt METAR EHLW 221734Z AUTO 21015KT 170V230 4600 -RA SCT004 OVC006 10/10 Q1001 YLO
18:25
I
10 °C 3,9 km 600 ft 210° 210° 15 kt METAR EHLW 221725Z AUTO 21015KT 160V230 3900 DZRA SCT005 OVC006 10/10 Q1001 YLO
18:16
L
10 °C 5 km 400 ft 210° 210° 15 kt METAR EHLW 221716Z AUTO 21015KT 170V230 5000 BR BKN004 OVC006 10/10 Q1001 YLO
17:55
L
10 °C 9 km 400 ft 210° 210° 14 kt METAR EHLW 221655Z AUTO 21014KT 170V230 9000 BR BKN004 OVC005 10/10 Q1001 REDZ YLO
17:46
L
10 °C 9 km 400 ft 200° 200° 13 kt SPECI EHLW 221646Z AUTO 20013KT 170V230 9000 -DZ BKN004 OVC005 10/10 Q1001 YLO
17:25
L
10 °C 5 km 400 ft 210° 210° 13 kt METAR EHLW 221625Z AUTO 21013KT 160V230 5000 -DZ BKN004 OVC005 10/10 Q1002 REDZ YLO
17:17
L
10 °C 3,1 km 400 ft 210° 210° 12 kt SPECI EHLW 221617Z AUTO 21012KT 170V230 3100 +DZRA BKN004 OVC005 10/10 Q1002 YLO
16:59
L
10 °C 7 km 400 ft 210° 210° 12 kt METAR EHLW 221559Z AUTO 21012KT 170V230 7000 DZ BKN004 BKN005 OVC007 10/09 Q1002 YLO
16:55
I
10 °C 3,6 km 500 ft 210° 210° 13 kt METAR EHLW 221555Z AUTO 21013KT 170V230 3600 DZ SCT004 BKN005 OVC007 10/09 Q1002 YLO
16:39
L
10 °C 3,2 km 300 ft 210° 210° 12 kt METAR EHLW 221539Z AUTO 21012KT 180V240 3200 DZ BKN003 OVC005 10/09 Q1002 YLO
16:32
I
10 °C 3,9 km 500 ft 210° 210° 11 kt METAR EHLW 221532Z AUTO 21011KT 180V240 3900 DZ SCT003 BKN005 OVC006 10/09 Q1002 YLO
16:27
I
10 °C 3,3 km 500 ft 210° 210° 12 kt METAR EHLW 221527Z AUTO 21012KT 170V230 3300 DZ SCT003 BKN005 OVC006 10/09 Q1002 YLO
16:25
I
10 °C 3,4 km 500 ft 210° 210° 12 kt METAR EHLW 221525Z AUTO 21012KT 170V230 3400 DZ SCT003 BKN005 BKN006 10/09 Q1002 YLO
16:15
I
10 °C 3,1 km 500 ft 200° 200° 11 kt METAR EHLW 221515Z AUTO 20011KT 170V230 3100 DZ SCT003 BKN005 OVC006 10/09 Q1002 YLO
16:03
I
10 °C 2,8 km 600 ft 200° 200° 12 kt METAR EHLW 221503Z AUTO 20012KT 160V230 2800 +DZ FEW004 SCT005 BKN006 10/09 Q1002 YLO TEMPO 4000 DZRA BKN006 OVC007
15:56
I
10 °C 2,8 km 1.000 ft 200° 200° 11 kt METAR EHLW 221456Z AUTO 20011KT 160V230 2800 +DZ FEW005 SCT006 BKN010 10/09 Q1002 YLO TEMPO 4000 DZRA BKN006 OVC007
15:55
I
10 °C 3 km 1.100 ft 200° 200° 12 kt METAR EHLW 221455Z AUTO 20012KT 160V230 3000 +DZ SCT006 SCT009 OVC011 10/09 Q1002 YLO TEMPO 4000 DZRA BKN006 OVC007
15:43
I
10 °C 10 km+ 700 ft 200° 200° 11 kt METAR EHLW 221443Z AUTO 20011KT 170V230 9999 -DZRA FEW004 SCT006 BKN007 10/09 Q1002 YLO TEMPO 4000 DZRA BKN006 OVC007
15:34
I
10 °C 10 km+ 800 ft 200° 200° 11 kt METAR EHLW 221434Z AUTO 20011KT 160V230 9999 -DZ FEW005 SCT007 BKN008 10/09 Q1002 GRN TEMPO 4000 DZRA BKN006 OVC007
15:25
I
10 °C 10 km+ 700 ft 210° 210° 11 kt METAR EHLW 221425Z AUTO 21011KT 170V230 9999 -DZ FEW005 SCT006 BKN007 10/09 Q1002 REDZ YLO TEMPO 4000 DZRA BKN006 OVC007
15:20
I
10 °C 7 km 600 ft 210° 210° 13 kt METAR EHLW 221420Z AUTO 21013KT 180V250 7000 -DZ FEW004 BKN006 BKN007 10/09 Q1002 YLO TEMPO 4000 DZRA BKN006 OVC007
15:00
I
10 °C 3,8 km 700 ft 210° 210° 14 kt METAR EHLW 221400Z AUTO 21014KT 3800 DZ SCT006 BKN007 BKN009 10/09 Q1002 YLO TEMPO 4000 DZRA BKN006 OVC007
14:56
I
10 °C 5 km 800 ft 210° 210° 13 kt METAR EHLW 221356Z AUTO 21013KT 5000 DZ SCT006 BKN008 OVC010 10/09 Q1002 YLO TEMPO 4000 DZRA BKN006 OVC007
14:40
M
10 °C 10 km+ 1.000 ft 220° 220° 16 kt METAR EHLW 221340Z AUTO 22016KT 180V240 9999 FEW009 OVC010 10/09 Q1002 GRN TEMPO 4000 DZRA BKN006 OVC007
14:25
I
10 °C 10 km+ 800 ft 210° 210° 16 kt METAR EHLW 221325Z AUTO 21016KT 180V240 9999 SCT007 BKN008 OVC010 10/09 Q1002 GRN TEMPO 3000 DZRA BKN006 OVC007
14:16
I
10 °C 10 km+ 800 ft 220° 220° 17 kt METAR EHLW 221316Z AUTO 22017KT 180V240 9999 FEW005 SCT007 BKN008 10/09 Q1002 GRN TEMPO 3000 DZRA BKN006 OVC007
14:03
I
10 °C 10 km+ 800 ft 210° 210° 17 kt METAR EHLW 221303Z AUTO 21017KT 180V240 9999 -DZ SCT007 BKN008 BKN009 10/09 Q1002 GRN TEMPO 3000 DZRA BKN006 OVC007
13:56
M
10 °C 10 km+ 1.000 ft 210° 210° 16 kt METAR EHLW 221256Z AUTO 21016KT 9999 -DZ FEW007 SCT008 BKN010 10/09 Q1002 GRN TEMPO 3000 DZRA BKN006 OVC007
13:41
I
10 °C 7 km 900 ft 210° 210° 15 kt METAR EHLW 221241Z AUTO 21015KT 7000 -DZ SCT006 BKN009 BKN010 10/09 Q1002 YLO TEMPO 3000 DZRA BKN006 OVC007
13:36
I
10 °C 8 km 700 ft 220° 220° 15 kt METAR EHLW 221236Z AUTO 22015KT 8000 -DZ FEW005 BKN007 BKN009 10/09 Q1002 GRN TEMPO 3000 DZRA BKN006 OVC007
13:29
I
10 °C 3,8 km 700 ft 220° 220° 16 kt METAR EHLW 221229Z AUTO 22016KT 3800 DZ FEW005 BKN007 BKN008 10/09 Q1003 GRN TEMPO 3000 DZRA BKN006 OVC007
13:25
I
10 °C 3,1 km 700 ft 220° 220° 16 kt METAR EHLW 221225Z AUTO 22016KT 3100 DZ FEW005 BKN007 OVC009 10/09 Q1003 YLO TEMPO 3000 DZRA BKN006 OVC007
13:19
I
10 °C 3,9 km 800 ft 210° 210° 15 kt METAR EHLW 221219Z AUTO 21015KT 3900 DZRA SCT007 BKN008 OVC010 10/09 Q1003 GRN TEMPO 3000 DZRA BKN006 OVC007
13:11
I
10 °C 4 km 800 ft 210° 210° 14 kt METAR EHLW 221211Z AUTO 21014KT 4000 -RA FEW007 BKN008 OVC010 10/09 Q1002 GRN TEMPO 3000 DZRA BKN006 OVC007
13:07
I
10 °C 4,3 km 1.000 ft 210° 210° 16 kt METAR EHLW 221207Z AUTO 21016KT 180V240 4300 -RADZ FEW007 SCT008 BKN010 10/09 Q1003 GRN TEMPO 3000 DZRA BKN006 OVC007
13:00
M
10 °C 5 km 1.100 ft 210° 210° 16 kt METAR EHLW 221200Z AUTO 21016KT 180V240 5000 -RA FEW008 SCT009 OVC011 10/09 Q1003 GRN
12:55
M
10 °C 10 km+ 1.000 ft 210° 210° 17 kt METAR EHLW 221155Z AUTO 21017KT 9999 FEW007 BKN010 OVC013 10/09 Q1003 GRN
12:42
M
10 °C 10 km+ 1.000 ft 210° 210° 16 kt SPECI EHLW 221142Z AUTO 21016KT 170V230 9999 SCT007 SCT009 BKN010 10/09 Q1002 GRN
12:33
I
10 °C 10 km+ 800 ft 210° 210° 16 kt METAR EHLW 221133Z AUTO 21016KT 9999 -DZRA SCT007 BKN008 BKN009 10/09 Q1002 GRN
12:25
I
10 °C 10 km+ 800 ft 210° 210° 16 kt METAR EHLW 221125Z AUTO 21016KT 170V240 9999 -RA SCT007 BKN008 BKN010 10/09 Q1002 GRN
12:07
I
10 °C 10 km+ 800 ft 210° 210° 16 kt METAR EHLW 221107Z AUTO 21016KT 170V230 9999 -RA SCT007 BKN008 BKN009 10/09 Q1002 GRN
11:59
I
10 °C 10 km+ 700 ft 210° 210° 16 kt METAR EHLW 221059Z AUTO 21016KT 170V230 9999 -RA SCT006 BKN007 BKN009 10/09 Q1002 YLO
11:55
I
10 °C 10 km+ 700 ft 210° 210° 17 kt METAR EHLW 221055Z AUTO 21017KT 170V230 9999 -RA BKN007 BKN008 BKN011 FEW015CB 10/09 Q1002 GRN
11:47
I
10 °C 10 km+ 800 ft 210° 210° 16 kt SPECI EHLW 221047Z AUTO 21016KT 160V230 9999 -RA SCT007 BKN008 BKN010 FEW015CB 10/09 Q1002 GRN
11:31
I
9 °C 10 km+ 800 ft 210° 210° 17 kt METAR EHLW 221031Z AUTO 21017KT 160V230 9999 -RA SCT006 BKN008 BKN010 FEW015CB 09/08 Q1002 YLO
11:25
I
9 °C 10 km+ 700 ft 210° 210° 16 kt METAR EHLW 221025Z AUTO 21016KT 170V230 9999 -SHRA SCT006 BKN007 BKN009 FEW015CB 09/08 Q1002 YLO
11:16
I
9 °C 8 km 800 ft 210° 210° 17 kt METAR EHLW 221016Z AUTO 21017KT 170V230 8000 -SHRA SCT007 BKN008 BKN010 FEW015CB 09/08 Q1002 GRN
11:08
I
9 °C 7 km 800 ft 210° 210° 17 - 27 kt METAR EHLW 221008Z AUTO 21017G27KT 170V230 7000 -RA SCT006 BKN008 BKN010 09/08 Q1002 YLO
10:55
I
9 °C 5 km 700 ft 200° 200° 17 - 27 kt METAR EHLW 220955Z AUTO 20017G27KT 170V230 5000 -SHRA SCT006 BKN007 BKN008 09/08 Q1002 YLO
10:43
I
9 °C 5 km 600 ft 200° 200° 18 kt METAR EHLW 220943Z AUTO 20018KT 160V230 5000 -SHRA BKN006 BKN007 BKN010 09/08 Q1002 YLO
10:42
I
9 °C 4,3 km 700 ft 200° 200° 18 kt METAR EHLW 220942Z AUTO 20018KT 160V230 4300 -RA SCT006 BKN007 BKN010 09/08 Q1002 YLO
10:32
I
9 °C 3,8 km 900 ft 210° 210° 18 - 28 kt METAR EHLW 220932Z AUTO 21018G28KT 170V230 3800 -RA FEW007 SCT008 BKN009 09/08 Q1002 GRN
10:25
I
10 °C 4,3 km 1.200 ft 210° 210° 18 kt METAR EHLW 220925Z AUTO 21018KT 170V240 4300 -RA SCT010 BKN012 OVC016 10/08 Q1002 RERA REDZ GRN
10:20
M
10 °C 6 km 1.200 ft 200° 200° 17 kt METAR EHLW 220920Z AUTO 20017KT 170V230 6000 +DZRA FEW007 BKN012 OVC015 10/08 Q1002 GRN
10:16
M
10 °C 6 km 1.600 ft 200° 200° 17 kt METAR EHLW 220916Z AUTO 20017KT 170V230 6000 DZ FEW007 SCT013 OVC016 10/08 Q1002 GRN
10:08
M
10 °C 10 km+ 1.800 ft 200° 200° 18 kt METAR EHLW 220908Z AUTO 20018KT 160V240 9999 -DZ SCT015CB OVC018 10/08 Q1002 WHT
09:56
M
10 °C 10 km+ 1.900 ft 200° 200° 18 kt METAR EHLW 220856Z AUTO 20018KT 170V230 9999 -DZRA FEW015CB BKN019 OVC022 10/08 Q1002 WHT
09:55
M
10 °C 10 km+ 1.900 ft 200° 200° 18 kt METAR EHLW 220855Z AUTO 20018KT 160V230 9999 -RA FEW015CB BKN019 OVC022 10/08 Q1002 RERA REDZ WHT
09:35
M
10 °C 10 km+ 2.700 ft 200° 200° 18 kt METAR EHLW 220835Z AUTO 20018KT 170V230 9999 DZ FEW014 FEW015CB SCT022 BKN027 10/08 Q1002 WHT
09:25
V
10 °C 10 km+ 7.100 ft 200° 200° 17 - 28 kt METAR EHLW 220825Z AUTO 20017G28KT 160V230 9999 FEW015 BKN071 OVC076 10/08 Q1002 BLU
09:08
V
10 °C 10 km+ 6.800 ft 200° 200° 18 kt METAR EHLW 220808Z AUTO 20018KT 150V230 9999 FEW019 BKN068 OVC074 10/08 Q1002 BLU
08:55
M
10 °C 10 km+ 1.900 ft 200° 200° 16 - 26 kt METAR EHLW 220755Z AUTO 20016G26KT 160V230 9999 BKN019 OVC065 10/08 Q1002 WHT
08:46
V
10 °C 10 km+ 6.500 ft 200° 200° 16 kt SPECI EHLW 220746Z AUTO 20016KT 160V230 9999 SCT019 OVC065 10/08 Q1002 WHT
08:25
V
10 °C 10 km+ 7.200 ft 200° 200° 16 kt METAR EHLW 220725Z AUTO 20016KT 160V230 9999 -DZ FEW021 OVC072 10/08 Q1002 BLU
08:13
V
10 °C 10 km+ 6.900 ft 200° 200° 16 kt METAR EHLW 220713Z AUTO 20016KT 160V230 9999 FEW020 BKN069 OVC075 10/08 Q1002 BLU
07:55
M
10 °C 10 km+ 2.200 ft 200° 200° 15 kt METAR EHLW 220655Z AUTO 20015KT 160V230 9999 -RADZ FEW014 BKN022 OVC025 10/08 Q1002 WHT
07:28
V
10 °C 10 km+ 6.800 ft 200° 200° 14 - 25 kt METAR EHLW 220628Z AUTO 20014G25KT 160V230 9999 FEW015CB SCT021 OVC068 10/08 Q1002 WHT
07:25
V
10 °C 10 km+ 6.800 ft 200° 200° 15 - 25 kt METAR EHLW 220625Z AUTO 20015G25KT 160V230 9999 -DZ FEW015CB OVC068 10/08 Q1002 REDZ BLU
06:55
V
10 °C 10 km+ 6.800 ft 200° 200° 13 kt METAR EHLW 220555Z AUTO 20013KT 160V230 9999 -DZ FEW015CB OVC068 10/08 Q1003 REDZ BLU
06:31
V
10 °C 10 km+ 8.100 ft 200° 200° 14 kt METAR EHLW 220531Z AUTO 20014KT 170V240 9999 FEW015CB BKN081 OVC086 10/07 Q1003 BLU
06:25
V
10 °C 10 km+ 9.400 ft 200° 200° 14 kt METAR EHLW 220525Z AUTO 20014KT 170V240 9999 FEW088 BKN094 OVC099 10/07 Q1003 BLU
05:55
V
10 °C 10 km+ 8.500 ft 190° 190° 12 kt METAR EHLW 220455Z AUTO 19012KT 160V220 9999 BKN085 OVC091 10/07 Q1003 BLU
05:25
V
9 °C 10 km+ 4.600 ft 200° 200° 10 kt METAR EHLW 220425Z AUTO 20010KT 9999 BKN046 OVC050 09/07 Q1004 BLU
05:10
V
9 °C 10 km+ 3.400 ft 200° 200° 11 kt METAR EHLW 220410Z AUTO 20011KT 160V220 9999 FEW022 BKN034 BKN043 09/07 Q1004 BLU
04:55
M
9 °C 10 km+ 2.100 ft 200° 200° 11 kt METAR EHLW 220355Z AUTO 20011KT 170V230 9999 BKN021 OVC033 09/07 Q1004 WHT
04:42
M
9 °C 10 km+ 2.700 ft 200° 200° 12 kt METAR EHLW 220342Z AUTO 20012KT 170V230 9999 SCT023 BKN027 OVC031 09/07 Q1004 WHT
04:25
V
9 °C 10 km+ 3.000 ft 200° 200° 13 kt METAR EHLW 220325Z AUTO 20013KT 170V230 9999 OVC030 09/07 Q1004 BLU
03:55
M
9 °C 10 km+ 2.900 ft 200° 200° 11 kt METAR EHLW 220255Z AUTO 20011KT 170V230 9999 OVC029 09/07 Q1005 BLU
03:25
V
9 °C 10 km+ 3.000 ft 200° 200° 11 kt METAR EHLW 220225Z AUTO 20011KT 160V230 9999 BKN030 OVC036 09/07 Q1005 BLU
02:55
V
9 °C 10 km+ 13.000 ft 200° 200° 9 kt METAR EHLW 220155Z AUTO 20009KT 170V230 9999 OVC130 09/07 Q1005 BLU
02:25
V
9 °C 10 km+ 13.000 ft 210° 210° 11 kt METAR EHLW 220125Z AUTO 21011KT 180V240 9999 BKN130 OVC210 09/07 Q1005 BLU
01:55
V
9 °C 10 km+ 13.000 ft 210° 210° 11 kt METAR EHLW 220055Z AUTO 21011KT 9999 OVC130 09/07 Q1006 BLU
01:25
V
9 °C 10 km+ 13.000 ft 210° 210° 10 kt METAR EHLW 220025Z AUTO 21010KT 170V230 9999 OVC130 09/07 Q1006 BLU
00:55
V
9 °C 10 km+ 12.000 ft 210° 210° 10 kt METAR EHLW 212355Z AUTO 21010KT 170V230 9999 OVC120 09/08 Q1006 BLU
00:25
V
9 °C 10 km+ 13.000 ft 210° 210° 10 kt METAR EHLW 212325Z AUTO 21010KT 170V230 9999 OVC130 09/07 Q1006 BLU

21 marca 2023

Czas Kod Pogoda Temp. Widoczność Sufit Wiatr METAR/SPECI
23:55
V
9 °C 10 km+ 12.000 ft 200° 200° 9 kt METAR EHLW 212255Z AUTO 20009KT 9999 OVC120 09/07 Q1007 BLU
23:25
V
9 °C 10 km+ 12.000 ft 210° 210° 11 kt METAR EHLW 212225Z AUTO 21011KT 170V240 9999 OVC120 09/07 Q1007 BLU
22:55
V
8 °C 10 km+ 25.000 ft 200° 200° 9 kt METAR EHLW 212155Z AUTO 20009KT 170V230 9999 FEW140 BKN250 08/07 Q1007 BLU
22:25
V
9 °C 10 km+ - 200° 200° 9 kt METAR EHLW 212125Z AUTO 20009KT 160V220 9999 SCT340 09/07 Q1007 BLU
21:55
V
9 °C 10 km+ 5.100 ft 200° 200° 10 kt METAR EHLW 212055Z AUTO 20010KT 170V230 9999 BKN051 OVC056 09/07 Q1007 BLU
21:25
V
10 °C 10 km+ 4.000 ft 210° 210° 12 kt METAR EHLW 212025Z AUTO 21012KT 160V230 9999 BKN040 OVC044 10/07 Q1008 BLU
20:55
V
10 °C 10 km+ 4.000 ft 210° 210° 13 kt METAR EHLW 211955Z AUTO 21013KT 170V240 9999 BKN040 OVC045 10/07 Q1008 BLU
20:25
V
10 °C 10 km+ 3.900 ft 200° 200° 10 kt METAR EHLW 211925Z AUTO 20010KT 160V230 9999 BKN039 OVC043 10/08 Q1008 BLU
19:55
V
10 °C 10 km+ 3.200 ft 210° 210° 11 kt METAR EHLW 211855Z AUTO 21011KT 180V240 9999 BKN032 OVC041 10/08 Q1008 BLU
19:25
V
10 °C 10 km+ 3.100 ft 210° 210° 11 kt METAR EHLW 211825Z AUTO 21011KT 170V230 9999 BKN031 OVC035 10/08 Q1008 BLU
19:01
V
10 °C 10 km+ 3.200 ft 210° 210° 14 kt METAR EHLW 211801Z AUTO 21014KT 180V240 9999 FEW017 SCT028 BKN032 10/09 Q1008 BLU
18:55
M
10 °C 10 km+ 2.100 ft 220° 220° 15 kt METAR EHLW 211755Z AUTO 22015KT 180V240 9999 FEW017 BKN021 OVC026 10/09 Q1008 WHT
18:41
V
10 °C 10 km+ 3.100 ft 220° 220° 15 kt METAR EHLW 211741Z AUTO 22015KT 9999 FEW014 SCT024 OVC031 10/08 Q1008 WHT
18:37
V
10 °C 10 km+ 3.200 ft 210° 210° 15 kt METAR EHLW 211737Z AUTO 21015KT 170V230 9999 FEW012 SCT029 OVC032 10/09 Q1008 BLU
18:25
M
10 °C 10 km+ 1.500 ft 210° 210° 15 kt METAR EHLW 211725Z AUTO 21015KT 180V240 9999 BKN015 BKN019 OVC027 10/09 Q1008 WHT
18:08
M
10 °C 10 km+ 2.300 ft 220° 220° 14 kt METAR EHLW 211708Z AUTO 22014KT 9999 FEW008 BKN023 BKN027 10/09 Q1008 WHT
17:55
I
10 °C 10 km+ 900 ft 220° 220° 17 kt METAR EHLW 211655Z AUTO 22017KT 190V250 9999 FEW006 SCT007 BKN009 10/09 Q1008 GRN
17:50
I
10 °C 10 km+ 800 ft 220° 220° 16 kt METAR EHLW 211650Z AUTO 22016KT 190V250 9999 FEW005 SCT007 BKN008 10/09 Q1009 GRN
17:34
I
10 °C 10 km+ 600 ft 220° 220° 16 kt SPECI EHLW 211634Z AUTO 22016KT 190V250 9999 BKN006 OVC007 10/09 Q1009 YLO
17:30
I
10 °C 9 km 700 ft 220° 220° 16 kt METAR EHLW 211630Z AUTO 22016KT 190V250 9000 BR FEW005 BKN007 OVC008 10/09 Q1009 GRN
17:25
I
10 °C 8 km 700 ft 220° 220° 15 kt METAR EHLW 211625Z AUTO 22015KT 180V240 8000 BR FEW004 SCT005 BKN007 10/09 Q1008 YLO
17:20
I
10 °C 6 km 600 ft 220° 220° 15 kt METAR EHLW 211620Z AUTO 22015KT 180V240 6000 BR FEW004 BKN006 OVC007 10/09 Q1008 YLO
16:58
I
10 °C 4,2 km 600 ft 220° 220° 14 kt METAR EHLW 211558Z AUTO 22014KT 190V250 4200 BR FEW005 BKN006 BKN008 10/09 Q1008 YLO
16:55
I
10 °C 4 km 800 ft 220° 220° 15 kt METAR EHLW 211555Z AUTO 22015KT 4000 DZ FEW006 SCT007 BKN008 10/09 Q1008 GRN
16:41
I
10 °C 3,5 km 1.200 ft 220° 220° 16 kt METAR EHLW 211541Z AUTO 22016KT 3500 -RADZ FEW007 BKN012 OVC015 10/08 Q1008 YLO
16:39
M
10 °C 6 km 1.300 ft 220° 220° 16 kt METAR EHLW 211539Z AUTO 22016KT 190V250 6000 BR FEW007 BKN013 OVC015 10/08 Q1008 GRN
16:25
M
11 °C 10 km+ 1.400 ft 230° 230° 15 kt METAR EHLW 211525Z AUTO 23015KT 190V250 9999 FEW008 OVC014 11/08 Q1008 GRN
16:04
M
11 °C 10 km+ 1.500 ft 220° 220° 14 kt METAR EHLW 211504Z AUTO 22014KT 190V250 9999 FEW011 OVC015 11/08 Q1009 WHT
15:55
M
11 °C 5 km 1.500 ft 220° 220° 15 - 25 kt METAR EHLW 211455Z AUTO 22015G25KT 5000 BR FEW007 BKN015 OVC019 11/08 Q1009 WHT
15:25
M
12 °C 10 km+ 1.700 ft 220° 220° 15 kt METAR EHLW 211425Z AUTO 22015KT 180V240 9999 BKN017 OVC022 12/08 Q1009 WHT
14:55
M
11 °C 10 km+ 2.100 ft 210° 210° 14 kt METAR EHLW 211355Z AUTO 21014KT 180V240 9999 FEW014 SCT016 BKN021 11/09 Q1009 WHT
14:45
M
11 °C 10 km+ 1.600 ft 210° 210° 13 kt SPECI EHLW 211345Z AUTO 21013KT 170V230 9999 FEW014 BKN016 OVC021 11/08 Q1009 WHT
14:40
M
11 °C 10 km+ 1.700 ft 210° 210° 15 kt METAR EHLW 211340Z AUTO 21015KT 170V240 9999 SCT014 BKN017 BKN022 11/08 Q1009 GRN
14:34
M
11 °C 10 km+ 1.600 ft 210° 210° 15 kt METAR EHLW 211334Z AUTO 21015KT 180V240 9999 FEW013 BKN016 OVC022 11/08 Q1009 WHT
14:25
M
11 °C 10 km+ 1.600 ft 210° 210° 14 kt METAR EHLW 211325Z AUTO 21014KT 180V240 9999 SCT013 BKN016 BKN028 11/08 Q1009 GRN
14:11
V
11 °C 10 km+ 3.500 ft 210° 210° 14 kt METAR EHLW 211311Z AUTO 21014KT 160V230 9999 FEW015 SCT018 BKN035 11/08 Q1009 WHT
14:06
V
11 °C 10 km+ 3.100 ft 210° 210° 13 kt METAR EHLW 211306Z AUTO 21013KT 170V230 9999 FEW016 SCT027 BKN031 11/08 Q1009 BLU
13:55
M
11 °C 10 km+ 2.700 ft 210° 210° 12 kt METAR EHLW 211255Z AUTO 21012KT 160V230 9999 FEW013 SCT016 OVC027 11/08 Q1010 WHT
13:33
M
11 °C 10 km+ 1.600 ft 200° 200° 14 kt METAR EHLW 211233Z AUTO 20014KT 170V230 9999 SCT014 OVC016 11/08 Q1010 GRN
13:29
M
11 °C 10 km+ 1.500 ft 200° 200° 14 kt METAR EHLW 211229Z AUTO 20014KT 170V230 9999 BKN015/// BKN019/// OVC033/// 11/08 Q1010 WHT
13:25
M
11 °C 10 km+ 1.600 ft 200° 200° 13 kt METAR EHLW 211225Z AUTO 20013KT 170V230 9999 SCT013/// BKN016/// BKN025/// 11/08 Q1010 GRN
13:12
M
11 °C 10 km+ 1.400 ft 210° 210° 13 kt METAR EHLW 211212Z AUTO 21013KT 170V230 9999 BKN014/// OVC017/// 11/08 Q1010 GRN
13:05
M
11 °C 10 km+ 1.600 ft 210° 210° 13 kt METAR EHLW 211205Z AUTO 21013KT 170V230 9999 SCT014/// OVC016/// 11/08 Q1010 GRN
12:55
M
11 °C 10 km+ 1.600 ft 210° 210° 13 kt METAR EHLW 211155Z AUTO 21013KT 160V230 9999 OVC016/// 11/08 Q1010 WHT
12:35
M
11 °C 10 km+ 1.600 ft 190° 190° 14 kt METAR EHLW 211135Z AUTO 19014KT 150V230 9999 FEW014/// BKN016/// OVC022/// 11/08 Q1010 WHT
12:34
M
11 °C 10 km+ 1.700 ft 190° 190° 13 kt METAR EHLW 211134Z AUTO 19013KT 160V220 9999 SCT014/// BKN017/// OVC021/// 11/08 Q1010 GRN
12:25
M
11 °C 10 km+ 2.100 ft 190° 190° 13 kt METAR EHLW 211125Z AUTO 19013KT 160V230 9999 FEW016/// BKN021/// BKN026/// 11/08 Q1010 WHT
11:55
M
11 °C 10 km+ 2.400 ft 190° 190° 12 kt METAR EHLW 211055Z AUTO 19012KT 160V220 9999 BKN024/// OVC027/// 11/08 Q1010 WHT
11:35
V
10 °C 10 km+ 3.300 ft 190° 190° 13 kt METAR EHLW 211035Z AUTO 19013KT 150V230 9999 SCT025/// OVC033/// 10/09 Q1011 BLU
11:30
M
10 °C 10 km+ 2.400 ft 200° 200° 12 kt METAR EHLW 211030Z AUTO 20012KT 160V230 9999 FEW008/// BKN024/// BKN028/// 10/09 Q1011 WHT
11:25
M
10 °C 10 km+ 1.000 ft 200° 200° 12 kt METAR EHLW 211025Z AUTO 20012KT 170V230 9999 FEW008/// SCT009/// BKN010/// 10/09 Q1011 GRN
11:18
M
10 °C 10 km+ 1.100 ft 200° 200° 11 kt METAR EHLW 211018Z AUTO 20011KT 160V240 9999 FEW007/// SCT009/// BKN011/// 10/09 Q1011 GRN
11:14
V
10 °C 10 km+ 3.200 ft 200° 200° 11 kt METAR EHLW 211014Z AUTO 20011KT 160V240 9999 FEW007/// SCT010/// OVC032/// 10/09 Q1011 GRN
11:05
V
10 °C 10 km+ 3.200 ft 200° 200° 10 kt METAR EHLW 211005Z AUTO 20010KT 160V220 9999 FEW009/// BKN032/// OVC042/// 10/09 Q1011 BLU
10:55
V
9 °C 10 km+ 3.600 ft 200° 200° 10 kt METAR EHLW 210955Z AUTO 20010KT 150V220 9999 FEW008/// OVC036/// 09/09 Q1011 REDZ BLU
10:44
V
9 °C 8 km 3.300 ft 200° 200° 11 kt METAR EHLW 210944Z AUTO 20011KT 160V230 8000 -RA FEW008/// BKN033/// BKN037/// 09/08 Q1011 BLU
10:43
M
9 °C 6 km 3.200 ft 200° 200° 11 kt METAR EHLW 210943Z AUTO 20011KT 160V230 6000 RA FEW007/// BKN032/// BKN047/// 09/08 Q1011 WHT
10:25
I
9 °C 6 km 800 ft 200° 200° 11 kt METAR EHLW 210925Z AUTO 20011KT 160V230 6000 -RADZ FEW006/// SCT007/// BKN008/// 09/08 Q1011 GRN
10:14
I
9 °C 6 km 700 ft 200° 200° 12 kt METAR EHLW 210914Z AUTO 20012KT 170V230 6000 DZ FEW006/// BKN007/// BKN008/// 09/08 Q1011 GRN
09:55
I
9 °C 6 km 500 ft 200° 200° 11 kt METAR EHLW 210855Z AUTO 20011KT 160V220 6000 -DZ SCT004/// BKN005/// OVC007/// 09/09 Q1011 REDZ YLO
09:38
I
9 °C 6 km 900 ft 200° 200° 9 kt METAR EHLW 210838Z AUTO 20009KT 160V230 6000 DZ FEW004/// SCT005/// BKN009/// 09/09 Q1011 YLO
09:36
M
9 °C 6 km 3.500 ft 210° 210° 9 kt METAR EHLW 210836Z AUTO 21009KT 6000 DZ FEW005 SCT011 FEW015CB OVC035 09/09 Q1011 GRN
09:30
M
9 °C 5 km 3.400 ft 210° 210° 10 kt METAR EHLW 210830Z AUTO 21010KT 170V230 5000 DZ FEW004 FEW015CB SCT024 OVC034 09/09 Q1011 WHT
09:25
I
9 °C 4,8 km 500 ft 200° 200° 10 kt METAR EHLW 210825Z AUTO 20010KT 160V230 4800 -SHRA FEW002 SCT004 BKN005 FEW015CB 09/09 Q1012 REDZ YLO
09:15
L
9 °C 4,4 km 300 ft 210° 210° 9 kt METAR EHLW 210815Z AUTO 21009KT 160V240 4400 +DZRA SCT002 BKN003 BKN004 FEW015CB 09/09 Q1012 AMB
09:08
L
9 °C 3,1 km 200 ft 210° 210° 10 kt METAR EHLW 210808Z AUTO 21010KT 170V230 3100 +DZ BKN002 BKN004 BKN005 FEW015CB 09/09 Q1012 AMB
08:55
L
9 °C 3,8 km 300 ft 210° 210° 9 kt METAR EHLW 210755Z AUTO 21009KT 170V230 3800 +DZ FEW002 BKN003 OVC005 09/09 Q1012 YLO
08:44
L
9 °C 5 km 400 ft 210° 210° 9 kt METAR EHLW 210744Z AUTO 21009KT 5000 DZ SCT002 BKN004 OVC005 09/09 Q1012 AMB

My i strony trzecie śledzimy Twoje zachowanie internetowe na naszej stronie za pomocą plików cookie. Jeśli kontynuujesz, zakładamy, że zgadzasz się z naszymi polityka plików cookie.